Terminal Aerodrome Forecast
Issued by NWS Mt. Holly, NJ

Home | Current Version | Previous Version | Text Only | Print | Product List | Glossary On
Versions: 1 2 3 4 5 6 7 8 9 10 11 12 13 14 15 16 17 18 19 20 21
000
FTUS41 KPHI 302320
TAFACY
TAF
KACY 302320Z 3100/3124 26006KT P6SM SCT100
     FM310600 31008KT P6SM SKC
      TEMPO 3108/3112 4SM BR
     FM311800 27010KT P6SM SKC=

USA.gov is the U.S. government's official web portal to all federal, state and local government web resources and services.